Time;durP1;ratioP1;P1;durP2;ratioP2;P2;SDS_P1;SDS_P2;PMS_P1;PMS_P2;Temp;Humidity;BMP_temperature;BMP_pressure;BME280_temperature;BME280_humidity;BME280_pressure;Samples;Min_cycle;Max_cycle;Signal;HPM_P1;HPM_P2
2022/04/20 00:02:02;;;;;;;3.53;2.30;;;10.00;40.10;;;10.62;36.10;97292.78;5044288;28;20049;-50
2022/04/20 00:04:30;;;;;;;4.00;2.13;;;9.90;40.30;;;10.60;35.86;97286.81;5044617;28;20060;-51
2022/04/20 00:06:58;;;;;;;4.50;2.27;;;9.90;40.10;;;10.57;35.85;97293.31;5043884;28;20055;-54
2022/04/20 00:09:25;;;;;;;4.97;2.10;;;9.90;40.00;;;10.55;35.78;97289.16;5044208;28;20047;-53
2022/04/20 00:11:53;;;;;;;3.33;2.17;;;9.90;39.80;;;10.54;35.68;97285.66;5044362;28;20246;-52
2022/04/20 00:14:22;;;;;;;2.90;2.47;;;9.90;39.80;;;10.54;35.74;97287.50;5044595;28;20053;-53
2022/04/20 00:16:49;;;;;;;3.40;2.33;;;9.90;39.80;;;10.51;35.93;97282.53;5043629;28;20037;-53
2022/04/20 00:19:17;;;;;;;3.20;2.30;;;9.90;39.80;;;10.49;36.16;97276.50;5044035;28;20188;-51
2022/04/20 00:21:45;;;;;;;7.20;2.57;;;9.80;39.90;;;10.48;36.15;97277.53;5044018;28;20046;-52
2022/04/20 00:24:13;;;;;;;4.43;2.67;;;9.80;39.80;;;10.44;35.83;97282.34;5043799;28;20053;-52
2022/04/20 00:26:41;;;;;;;5.30;2.40;;;9.90;39.50;;;10.44;35.93;97279.69;5043432;28;20331;-50
2022/04/20 00:29:08;;;;;;;4.30;2.40;;;9.90;39.50;;;10.42;36.15;97284.34;5043408;28;20336;-51
2022/04/20 00:31:36;;;;;;;3.57;2.43;;;10.00;39.80;;;10.44;36.33;97282.34;5043616;28;20049;-49
2022/04/20 00:34:04;;;;;;;4.73;2.70;;;10.00;39.90;;;10.43;36.56;97284.19;5043458;28;20045;-51
2022/04/20 00:36:32;;;;;;;5.13;2.47;;;9.90;40.20;;;10.42;36.55;97284.34;5043228;28;20063;-50
2022/04/20 00:39:00;;;;;;;5.00;2.50;;;9.80;40.30;;;10.41;36.39;97288.84;5042295;28;20367;-55
2022/04/20 00:41:28;;;;;;;3.07;2.23;;;9.80;40.60;;;10.38;36.74;97291.03;5043419;28;20075;-53
2022/04/20 00:43:56;;;;;;;4.17;2.83;;;9.80;40.50;;;10.38;36.87;97286.53;5043530;28;20056;-53
2022/04/20 00:46:25;;;;;;;4.90;2.70;;;9.90;40.70;;;10.33;37.08;97290.69;5040732;28;20050;-53
2022/04/20 00:48:55;;;;;;;4.57;2.87;;;9.90;40.70;;;10.34;37.30;97285.19;5042720;28;20271;-51
2022/04/20 00:51:24;;;;;;;3.93;2.77;;;9.90;41.10;;;10.35;37.44;97283.38;5026321;28;20050;-52
2022/04/20 00:53:52;;;;;;;5.00;3.20;;;9.90;41.20;;;10.33;37.39;97282.69;5058475;28;20049;-53
2022/04/20 00:56:20;;;;;;;3.77;2.53;;;9.80;41.70;;;10.30;37.56;97288.34;5058287;28;20045;-54
2022/04/20 00:58:48;;;;;;;4.20;3.07;;;9.70;42.00;;;10.25;37.85;97288.84;5041643;28;20148;-53
2022/04/20 01:01:16;;;;;;;5.10;3.63;;;9.70;42.50;;;10.20;37.78;97286.69;5043076;28;20051;-51
2022/04/20 01:03:44;;;;;;;3.80;2.67;;;9.70;42.70;;;10.17;38.08;97281.69;5043020;28;20272;-51
2022/04/20 01:06:31;;;;;;;3.80;2.63;;;9.60;42.70;;;10.15;38.21;97282.84;5045007;28;20077;-49
2022/04/20 01:09:19;;;;;;;5.20;3.17;;;9.60;42.90;;;10.15;37.98;97277.53;5042996;28;20057;-50
2022/04/20 01:12:23;;;;;;;4.80;2.70;;;9.60;43.20;;;10.12;38.17;97289.34;5041443;28;20053;-52
2022/04/20 01:15:18;;;;;;;5.90;3.30;;;9.50;43.40;;;10.09;38.21;97291.50;5041052;28;20351;-50
2022/04/20 01:18:14;;;;;;;6.50;3.20;;;9.40;43.60;;;10.03;38.43;97288.50;5045465;28;20365;-51
2022/04/20 01:20:51;;;;;;;4.37;3.40;;;9.40;44.30;;;9.98;38.63;97280.22;5045974;28;20132;-53
2022/04/20 01:23:38;;;;;;;5.20;3.37;;;9.40;43.80;;;9.97;38.26;97283.03;5044010;28;20047;-49
2022/04/20 01:26:39;;;;;;;4.27;3.10;;;9.30;43.90;;;9.93;38.77;97282.53;5048458;28;20245;-54
2022/04/20 01:29:16;;;;;;;5.30;3.80;;;9.30;44.30;;;9.90;38.77;97282.03;5041597;28;20067;-50
2022/04/20 01:31:53;;;;;;;4.47;3.53;;;9.20;44.50;;;9.82;38.90;97281.03;5042950;28;20055;-54
2022/04/20 01:34:44;;;;;;;4.70;3.37;;;9.10;44.70;;;9.79;39.01;97284.03;5042547;28;20350;-50
2022/04/20 01:37:12;;;;;;;4.27;3.60;;;9.10;44.90;;;9.76;39.21;97286.19;5041467;28;20054;-51
2022/04/20 01:39:40;;;;;;;5.20;3.97;;;9.10;45.10;;;9.73;39.45;97286.50;5041269;28;20049;-52
2022/04/20 01:42:08;;;;;;;5.80;3.53;;;9.10;45.20;;;9.69;39.64;97283.34;5042228;28;20049;-52
2022/04/20 01:44:41;;;;;;;5.63;3.60;;;9.00;45.30;;;9.67;39.72;97285.31;5057868;28;20251;-52
2022/04/20 01:47:32;;;;;;;5.60;3.83;;;9.00;45.40;;;9.66;39.92;97284.50;5040618;28;20051;-52
2022/04/20 01:50:26;;;;;;;;;;;9.00;45.60;;;9.56;40.11;97280.34;5041478;28;20049;-55
2022/04/20 01:53:16;;;;;;;4.23;3.03;;;8.90;48.00;;;9.58;39.71;97284.50;5042269;28;19923;-51
2022/04/20 01:56:03;;;;;;;4.70;3.63;;;9.00;45.60;;;9.61;39.83;97281.50;5043066;28;20347;-51
2022/04/20 01:58:54;;;;;;;6.53;3.60;;;9.10;45.40;;;9.61;39.85;97280.66;5050674;28;20054;-48
2022/04/20 02:04:23;;;;;;;4.33;3.50;;;9.00;45.60;;;9.60;40.08;97282.50;5042083;28;20045;-50
2022/04/20 02:06:51;;;;;;;4.87;3.60;;;9.10;45.50;;;9.60;39.94;97284.34;5040559;28;20421;-51
2022/04/20 02:09:25;;;;;;;4.60;3.67;;;9.10;45.50;;;9.58;40.24;97284.50;5058236;28;20057;-50
2022/04/20 02:11:58;;;;;;;6.90;3.87;;;9.00;45.60;;;9.57;40.12;97282.81;5041090;28;20251;-52
2022/04/20 02:14:45;;;;;;;4.37;3.63;;;9.00;45.70;;;9.53;40.06;97284.16;5044761;28;20055;-52
2022/04/20 02:17:36;;;;;;;6.00;3.97;;;9.00;45.90;;;9.47;40.40;97284.81;5041403;28;20060;-55
2022/04/20 02:20:07;;;;;;;4.75;3.83;;;8.90;46.20;;;9.45;40.34;97281.47;5057481;28;20232;-53
2022/04/20 02:22:35;;;;;;;5.00;3.67;;;8.90;46.50;;;9.42;40.38;97279.13;5040844;28;20048;-53
2022/04/20 02:25:05;;;;;;;3.83;3.43;;;8.80;46.40;;;9.39;40.56;97277.66;5056918;28;20049;-50
2022/04/20 02:27:33;;;;;;;5.60;3.93;;;8.80;46.60;;;9.39;40.74;97279.47;5040397;28;20049;-51
2022/04/20 02:30:03;;;;;;;8.17;4.03;;;8.80;46.50;;;9.39;40.70;97287.44;5040765;28;20052;-50
2022/04/20 02:32:31;;;;;;;8.60;4.30;;;8.80;46.40;;;9.35;40.86;97280.81;5057440;28;20053;-53
2022/04/20 02:34:59;;;;;;;5.73;4.13;;;8.70;46.80;;;9.35;40.92;97283.47;5024013;28;20055;-52
2022/04/20 02:37:29;;;;;;;5.97;3.83;;;8.70;47.00;;;9.30;40.88;97275.94;5040589;28;20053;-52
2022/04/20 02:39:57;;;;;;;4.43;3.60;;;8.70;47.20;;;9.26;40.74;97277.28;5041888;28;20050;-48
2022/04/20 02:42:25;;;;;;;4.70;3.57;;;8.70;47.20;;;9.21;41.17;97276.94;5025229;28;20233;-54
2022/04/20 02:44:52;;;;;;;5.33;3.57;;;8.60;47.20;;;9.17;41.29;97280.91;5040764;28;20037;-54
2022/04/20 02:47:20;;;;;;;5.17;3.77;;;8.50;47.50;;;9.12;41.28;97281.38;5040645;28;20041;-52
2022/04/20 02:49:48;;;;;;;6.40;3.83;;;8.50;47.30;;;9.11;41.22;97281.53;5041988;28;20056;-52
2022/04/20 02:52:16;;;;;;;5.07;3.70;;;8.50;47.40;;;9.10;41.32;97285.22;5040661;28;20374;-50
2022/04/20 02:54:44;;;;;;;5.80;3.67;;;8.50;47.30;;;9.10;41.26;97280.72;5041645;28;20050;-52
2022/04/20 02:57:12;;;;;;;4.30;3.53;;;8.50;47.30;;;9.07;41.18;97281.88;5041573;28;20351;-50
2022/04/20 02:59:40;;;;;;;7.43;3.70;;;8.50;47.40;;;9.06;41.13;97280.19;5060830;28;20055;-51
2022/04/20 03:02:08;;;;;;;4.57;3.57;;;8.50;47.50;;;9.03;41.40;97277.88;5045874;28;20057;-51
2022/04/20 03:04:36;;;;;;;5.23;3.87;;;8.40;47.50;;;9.02;41.42;97280.69;5060707;28;20049;-52
2022/04/20 03:07:04;;;;;;;4.97;3.70;;;8.50;47.80;;;9.03;41.37;97279.69;5044332;28;20053;-49
2022/04/20 03:09:41;;;;;;;4.23;3.80;;;8.40;47.60;;;9.01;41.68;97287.81;5044265;28;20045;-48
2022/04/20 03:12:10;;;;;;;4.67;4.20;;;8.40;47.60;;;9.00;41.86;97288.00;5045291;28;20339;-48
2022/04/20 03:14:42;;;;;;;5.33;3.73;;;8.40;48.00;;;8.95;41.74;97291.09;5044717;28;20053;-52
2022/04/20 03:17:12;;;;;;;5.57;3.43;;;8.30;48.20;;;8.90;41.75;97293.44;5059875;28;20060;-50
2022/04/20 03:19:40;;;;;;;5.47;3.70;;;8.20;48.40;;;8.86;41.94;97284.13;5027708;28;20057;-51
2022/04/20 03:22:08;;;;;;;8.97;3.77;;;8.20;48.60;;;8.83;41.95;97289.72;5043965;28;20053;-49
2022/04/20 03:24:36;;;;;;;5.23;4.40;;;8.10;48.90;;;8.79;41.92;97285.75;5043561;28;20235;-51
2022/04/20 03:27:13;;;;;;;4.83;3.93;;;8.10;48.90;;;8.74;42.07;97290.69;5043542;28;20045;-51
2022/04/20 03:29:49;;;;;;;4.50;3.50;;;8.10;49.00;;;8.70;42.23;97295.47;5060795;28;20056;-48
2022/04/20 03:32:17;;;;;;;5.90;3.80;;;8.00;48.90;;;8.67;42.10;97296.63;5044858;28;20045;-51
2022/04/20 03:34:47;;;;;;;6.10;4.03;;;8.00;49.20;;;8.62;42.24;97301.56;5043571;28;20053;-49
2022/04/20 03:37:15;;;;;;;4.93;3.60;;;7.90;49.20;;;8.57;42.37;97301.22;5044251;28;20057;-54
2022/04/20 03:39:44;;;;;;;5.43;4.13;;;7.90;49.30;;;8.56;42.60;97299.53;5043540;28;20055;-52
2022/04/20 03:42:14;;;;;;;5.37;4.20;;;7.90;49.60;;;8.54;42.60;97301.53;5043688;28;20045;-49
2022/04/20 03:44:42;;;;;;;7.10;4.83;;;7.90;49.40;;;8.53;42.36;97294.56;5043369;28;20049;-51
2022/04/20 03:47:10;;;;;;;5.60;4.47;;;7.90;49.60;;;8.51;42.83;97288.59;5043350;28;20037;-50
2022/04/20 03:49:38;;;;;;;6.07;5.30;;;7.90;49.50;;;8.49;42.74;97295.84;5044336;28;20047;-49
2022/04/20 03:52:07;;;;;;;7.13;4.73;;;7.80;49.50;;;8.47;43.00;97290.72;5059955;28;20045;-49
2022/04/20 03:54:37;;;;;;;7.20;4.33;;;7.80;49.80;;;8.43;42.50;97289.38;5043226;28;20128;-47
2022/04/20 03:57:10;;;;;;;5.77;4.20;;;7.80;49.70;;;8.42;42.87;97290.34;5042439;28;20057;-49
2022/04/20 03:59:47;;;;;;;5.03;4.33;;;7.80;49.70;;;8.43;43.17;97288.50;5044492;28;20324;-49
2022/04/20 04:02:17;;;;;;;4.57;3.70;;;7.80;49.70;;;8.43;42.88;97293.81;5043179;28;20064;-48
2022/04/20 04:05:07;;;;;;;4.63;4.00;;;7.80;49.70;;;8.37;43.05;97289.94;5042776;28;20239;-50
2022/04/20 04:07:58;;;;;;;4.63;3.90;;;7.70;50.00;;;8.35;42.79;97291.09;5043963;28;20049;-51
2022/04/20 04:10:30;;;;;;;5.67;4.00;;;7.70;49.90;;;8.32;43.04;97291.38;5042777;28;20049;-50
2022/04/20 04:12:58;;;;;;;5.03;4.00;;;7.70;50.00;;;8.28;43.00;97290.88;5043212;28;20251;-48
2022/04/20 04:15:28;;;;;;;5.03;3.97;;;7.70;50.00;;;8.26;43.08;97288.38;5043670;28;20046;-53
2022/04/20 04:18:01;;;;;;;5.57;4.10;;;7.60;50.00;;;8.24;43.40;97292.19;5042597;28;20217;-51
2022/04/20 04:20:37;;;;;;;5.63;4.50;;;7.60;50.20;;;8.20;43.00;97283.72;5043030;28;20037;-51
2022/04/20 04:23:06;;;;;;;6.10;5.17;;;7.60;50.10;;;8.19;43.25;97287.34;5042695;28;20060;-52
2022/04/20 04:25:46;;;;;;;5.40;4.23;;;7.60;50.40;;;8.15;43.08;97287.81;5042757;28;20053;-49
2022/04/20 04:28:33;;;;;;;6.33;4.20;;;7.50;50.20;;;8.09;43.70;97297.22;5028839;28;20045;-51
2022/04/20 04:31:01;;;;;;;5.23;4.00;;;7.50;50.30;;;8.03;43.37;97289.88;5026158;28;20055;-49
2022/04/20 04:33:31;;;;;;;5.63;4.20;;;7.50;50.50;;;8.01;43.90;97295.31;5059199;28;20377;-50
2022/04/20 04:35:59;;;;;;;11.87;6.83;;;7.40;50.60;;;7.99;43.50;97286.69;5041963;28;20053;-52
2022/04/20 04:38:28;;;;;;;8.87;5.53;;;7.40;51.10;;;7.96;43.96;97289.63;5042390;28;20053;-51
2022/04/20 04:40:56;;;;;;;6.13;4.43;;;7.30;51.20;;;7.96;43.93;97287.00;5042218;28;20053;-49
2022/04/20 04:43:28;;;;;;;5.23;4.10;;;7.40;51.20;;;7.94;43.98;97290.78;5058671;28;20053;-50
2022/04/20 04:49:02;;;;;;;6.73;4.57;;;7.30;51.20;;;7.91;44.16;97301.69;5043508;28;20049;-49
2022/04/20 04:51:30;;;;;;;7.57;4.80;;;7.40;51.20;;;7.92;43.98;97304.19;5058066;28;20049;-48
2022/04/20 04:53:58;;;;;;;6.40;5.60;;;7.40;51.40;;;7.93;43.89;97308.53;5042289;28;20405;-51
2022/04/20 04:56:32;;;;;;;7.03;3.97;;;7.40;51.40;;;7.91;44.46;97309.63;5041738;28;20059;-52
2022/04/20 04:59:00;;;;;;;7.13;5.20;;;7.30;51.50;;;7.91;44.28;97312.28;5043460;28;20065;-51
2022/04/20 05:01:30;;;;;;;5.07;4.13;;;7.30;51.60;;;7.89;44.34;97309.81;5042008;28;20049;-50
2022/04/20 05:04:06;;;;;;;6.00;4.60;;;7.30;51.60;;;7.89;44.36;97308.00;5042126;28;20056;-49
2022/04/20 05:06:36;;;;;;;8.33;4.90;;;7.30;51.70;;;7.89;44.53;97310.63;5042099;28;20247;-48
2022/04/20 05:09:12;;;;;;;8.83;4.90;;;7.30;51.90;;;7.87;44.70;97309.09;5044070;28;20043;-51
2022/04/20 05:11:43;;;;;;;6.03;3.97;;;7.20;52.20;;;7.82;44.81;97304.28;5041760;28;20049;-49
2022/04/20 05:14:13;;;;;;;5.20;4.70;;;7.20;52.30;;;7.83;44.80;97307.75;5042895;28;20060;-48
2022/04/20 05:16:45;;;;;;;4.70;4.20;;;7.20;52.40;;;7.80;44.31;97305.41;5041321;28;20057;-50
2022/04/20 05:19:15;;;;;;;5.30;3.90;;;7.20;52.70;;;7.78;44.76;97310.88;5041752;28;20079;-48
2022/04/20 05:21:44;;;;;;;5.43;4.13;;;7.20;52.80;;;7.77;45.15;97308.34;5041863;28;20053;-47
2022/04/20 05:24:14;;;;;;;7.77;4.33;;;7.10;53.10;;;7.75;44.87;97307.69;5041468;28;20344;-49
2022/04/20 05:26:42;;;;;;;7.83;4.30;;;7.10;53.10;;;7.76;45.06;97310.19;5041397;28;20049;-48
2022/04/20 05:29:09;;;;;;;5.80;4.57;;;7.10;53.20;;;7.76;44.92;97319.97;5042068;28;20053;-50
2022/04/20 05:31:56;;;;;;;7.80;4.30;;;7.20;53.10;;;7.76;45.32;97312.00;5041490;28;20056;-49
2022/04/20 05:34:30;;;;;;;9.70;4.73;;;7.10;53.10;;;7.75;45.54;97310.34;5057884;28;20061;-47
2022/04/20 05:42:37;;;;;;;8.50;5.57;;;7.30;53.50;;;7.80;45.45;97310.72;5041259;28;20242;-49
2022/04/20 05:45:07;;;;;;;6.40;4.83;;;7.20;53.60;;;7.81;45.62;97315.03;5058348;28;20239;-48
2022/04/20 05:47:35;;;;;;;8.80;4.83;;;7.20;53.30;;;7.85;45.83;97321.69;5040138;28;20056;-49
2022/04/20 05:50:05;;;;;;;10.20;5.30;;;7.30;53.90;;;7.85;45.93;97319.88;5041050;28;20071;-48
2022/04/20 05:52:34;;;;;;;6.87;4.93;;;7.30;53.60;;;7.87;45.96;97317.06;5040670;28;20045;-47
2022/04/20 05:55:04;;;;;;;7.03;5.20;;;7.40;53.50;;;7.89;46.02;97323.06;5041212;28;20060;-48
2022/04/20 05:57:36;;;;;;;6.50;4.60;;;7.40;54.00;;;7.92;46.17;97319.28;5057152;28;20053;-50
2022/04/20 06:00:05;;;;;;;6.27;4.83;;;7.40;54.30;;;7.95;46.18;97314.50;5041022;28;20057;-48
2022/04/20 06:02:43;;;;;;;6.93;4.57;;;7.40;54.10;;;8.00;46.05;97321.97;5043885;28;20359;-48
2022/04/20 06:05:18;;;;;;;5.23;3.97;;;7.50;53.80;;;8.05;46.33;97320.53;5041109;28;20049;-49
2022/04/20 06:08:06;;;;;;;5.00;4.50;;;7.60;53.60;;;8.08;46.21;97322.91;5041844;28;20049;-50
2022/04/20 06:10:48;;;;;;;5.60;4.33;;;7.70;53.30;;;8.15;46.00;97330.25;5057748;28;20052;-52
2022/04/20 06:13:18;;;;;;;5.53;4.37;;;7.80;53.40;;;8.15;46.41;97325.75;5040826;28;20052;-50
2022/04/20 06:16:07;;;;;;;5.00;4.47;;;7.80;53.70;;;8.17;46.29;97334.38;5041652;28;20494;-50
2022/04/20 06:18:49;;;;;;;6.97;4.77;;;7.80;53.30;;;8.22;46.28;97329.47;5040742;28;20059;-51
2022/04/20 06:21:46;;;;;;;6.27;4.47;;;7.80;53.30;;;8.27;46.11;97334.28;5049961;28;20053;-49
2022/04/20 06:24:21;;;;;;;7.23;5.37;;;7.80;53.10;;;8.31;46.30;97333.00;5041327;28;20045;-53
2022/04/20 06:27:10;;;;;;;7.00;4.53;;;7.90;53.10;;;8.37;46.17;97320.94;5057231;28;20060;-52
2022/04/20 06:29:47;;;;;;;6.37;5.10;;;8.00;53.00;;;8.42;46.08;97326.66;5040884;28;20049;-49
2022/04/20 06:32:16;;;;;;;5.53;4.90;;;8.00;52.80;;;8.47;45.68;97327.00;5043642;28;20240;-52
2022/04/20 06:35:13;;;;;;;6.37;4.67;;;8.10;53.00;;;8.51;45.92;97319.56;5041611;28;20053;-48
2022/04/20 06:38:04;;;;;;;6.53;4.70;;;8.10;52.90;;;8.57;46.18;97321.59;5045024;28;20053;-51
2022/04/20 06:40:43;;;;;;;6.50;4.57;;;8.20;53.00;;;8.63;46.20;97315.69;5045004;28;20049;-53
2022/04/20 06:43:29;;;;;;;5.47;4.30;;;8.20;52.90;;;8.66;45.96;97316.19;5049654;28;20380;-49
2022/04/20 06:46:17;;;;;;;5.17;4.03;;;8.30;52.40;;;8.72;45.58;97317.38;5044518;28;20051;-51
2022/04/20 06:49:07;;;;;;;5.83;4.23;;;8.40;51.70;;;8.74;45.43;97318.03;5063507;28;20340;-52
2022/04/20 07:00:16;;;;;;;6.30;3.93;;;8.60;50.70;;;8.83;44.88;97324.25;5044440;28;20059;-48
2022/04/20 07:03:09;;;;;;;5.93;3.73;;;8.70;50.50;;;8.91;44.97;97313.66;5045496;28;20081;-48
2022/04/20 07:06:01;;;;;;;7.07;4.13;;;8.70;50.20;;;8.96;44.65;97311.38;5041871;28;20053;-49
2022/04/20 07:08:36;;;;;;;5.53;4.20;;;8.70;49.80;;;9.00;44.46;97314.53;5060860;28;20059;-48
2022/04/20 07:11:12;;;;;;;;;;;8.70;49.80;;;8.91;44.41;97310.19;5044509;28;20053;-52
2022/04/20 07:13:42;;;;;;;4.13;3.73;;;8.80;49.20;;;8.97;44.59;97314.84;5028113;28;19917;-47
2022/04/20 07:16:10;;;;;;;5.23;4.27;;;8.90;49.40;;;9.03;44.27;97317.72;5044497;28;20046;-51
2022/04/20 07:18:41;;;;;;;6.40;4.47;;;8.90;49.50;;;8.99;44.39;97311.03;5060357;28;20049;-48
2022/04/20 07:21:34;;;;;;;5.90;4.60;;;9.00;49.20;;;9.09;44.62;97312.75;5060036;28;20053;-50
2022/04/20 07:24:20;;;;;;;5.20;3.97;;;8.90;49.50;;;9.16;44.50;97303.97;5049843;28;20107;-49
2022/04/20 07:27:00;;;;;;;4.93;3.87;;;9.00;49.40;;;9.15;44.05;97306.78;5061847;28;20052;-49
2022/04/20 07:29:57;;;;;;;4.80;3.67;;;9.00;48.50;;;9.22;44.25;97300.66;5078480;28;20053;-51
2022/04/20 07:32:54;;;;;;;4.97;4.23;;;9.10;49.10;;;9.26;44.18;97309.16;5043088;28;20057;-52
2022/04/20 07:35:45;;;;;;;5.93;4.10;;;9.20;48.90;;;9.30;43.90;97307.84;5046001;28;20343;-50
2022/04/20 07:38:52;;;;;;;5.93;3.90;;;9.20;48.30;;;9.36;43.90;97309.00;5083132;28;20357;-49
2022/04/20 07:41:39;;;;;;;5.90;4.33;;;9.30;48.20;;;9.44;43.73;97314.34;5085877;28;20055;-52
2022/04/20 07:44:25;;;;;;;4.43;3.70;;;9.30;48.10;;;9.51;43.54;97310.06;5054888;28;20060;-53
2022/04/20 07:46:58;;;;;;;4.70;3.83;;;9.40;48.10;;;9.57;43.45;97322.69;5058357;28;20052;-52
2022/04/20 07:52:55;;;;;;;4.73;3.70;;;9.50;48.00;;;9.66;43.20;97318.22;5043132;28;20049;-50
2022/04/20 07:55:46;;;;;;;4.53;4.00;;;9.50;47.70;;;9.67;43.10;97317.22;5047965;28;20051;-48
2022/04/20 07:58:30;;;;;;;5.20;3.93;;;9.50;47.60;;;9.68;43.27;97316.25;5042856;28;20060;-50
2022/04/20 08:01:19;;;;;;;6.70;4.43;;;9.60;47.70;;;9.76;43.33;97323.41;5050509;28;20061;-49
2022/04/20 08:03:53;;;;;;;5.23;3.90;;;9.60;47.90;;;9.83;43.33;97319.09;5047992;28;20063;-52
2022/04/20 08:06:39;;;;;;;6.00;4.50;;;9.70;47.80;;;9.88;42.80;97318.59;5045446;28;20052;-49
2022/04/20 08:09:08;;;;;;;4.73;3.80;;;9.70;47.10;;;9.93;42.42;97324.25;5042858;28;20057;-52
2022/04/20 08:11:36;;;;;;;3.80;3.23;;;9.80;46.60;;;9.98;42.26;97328.09;5042819;28;20340;-49
2022/04/20 08:14:10;;;;;;;5.27;3.77;;;9.90;46.30;;;10.00;41.78;97326.09;5059261;28;20045;-53
2022/04/20 08:16:45;;;;;;;7.07;4.20;;;9.90;45.80;;;10.00;41.76;97326.09;5042804;28;20235;-49
2022/04/20 08:19:29;;;;;;;3.30;3.00;;;9.90;45.60;;;10.07;41.95;97322.78;5044937;28;20059;-53
2022/04/20 08:21:57;;;;;;;4.20;3.47;;;10.00;45.40;;;10.13;41.52;97324.75;5044202;28;20045;-51
2022/04/20 08:24:25;;;;;;;3.93;3.47;;;10.10;45.10;;;10.15;41.20;97326.25;5043691;28;20053;-49
2022/04/20 08:26:53;;;;;;;4.80;3.60;;;10.10;45.70;;;10.22;41.51;97323.78;5043044;28;20042;-50
2022/04/20 08:29:20;;;;;;;4.17;3.70;;;10.20;44.80;;;10.27;41.54;97323.25;5043731;28;20041;-48
2022/04/20 08:31:48;;;;;;;4.67;4.00;;;10.20;45.30;;;10.31;41.77;97328.09;5043841;28;20053;-51
2022/04/20 08:34:16;;;;;;;5.33;3.50;;;10.20;45.30;;;10.36;41.66;97323.13;5043649;28;20042;-48
2022/04/20 08:36:44;;;;;;;4.73;3.67;;;10.30;45.20;;;10.41;41.54;97331.44;5043610;28;20063;-52
2022/04/20 08:39:12;;;;;;;8.00;3.80;;;10.30;45.10;;;10.46;41.20;97322.13;5043364;28;20060;-48
2022/04/20 08:41:41;;;;;;;4.80;3.70;;;10.40;44.60;;;10.51;41.29;97325.94;5042027;28;20053;-50
2022/04/20 08:44:13;;;;;;;5.80;3.80;;;10.50;44.80;;;10.57;41.36;97325.25;5042244;28;20053;-52
2022/04/20 08:46:42;;;;;;;9.30;3.77;;;10.50;44.70;;;10.62;40.71;97328.25;5040724;28;20049;-51
2022/04/20 08:49:10;;;;;;;4.30;3.50;;;10.60;44.30;;;10.66;41.30;97320.72;5042290;28;20056;-50
2022/04/20 08:54:25;;;;;;;4.93;3.43;;;10.60;44.70;;;10.75;40.87;97321.56;5043369;28;20053;-50
2022/04/20 08:59:44;;;;;;;4.50;3.20;;;10.70;43.70;;;10.75;40.22;97308.25;5043267;28;20351;-53
2022/04/20 09:02:13;;;;;;;4.23;3.47;;;10.70;43.60;;;10.79;40.42;97320.22;5041924;28;20215;-48
2022/04/20 09:04:41;;;;;;;4.00;3.27;;;10.70;43.50;;;10.79;39.83;97312.22;5042012;28;20045;-48
2022/04/20 09:07:12;;;;;;;4.53;3.47;;;10.70;42.80;;;10.82;39.53;97311.91;5042450;28;20053;-49
2022/04/20 09:09:40;;;;;;;4.13;3.00;;;10.70;42.60;;;10.80;39.74;97301.41;5042012;28;20340;-52
2022/04/20 09:12:20;;;;;;;4.80;4.13;;;10.80;42.20;;;10.77;37.94;97309.72;5043038;28;20049;-51
2022/04/20 09:14:51;;;;;;;4.83;3.60;;;10.80;41.00;;;10.78;38.55;97305.25;5043195;28;20049;-51
2022/04/20 09:17:21;;;;;;;6.47;3.27;;;10.80;41.30;;;10.85;38.97;97306.22;5042368;28;20057;-50
2022/04/20 09:19:53;;;;;;;3.87;3.27;;;10.90;41.60;;;10.93;38.82;97300.03;5042693;28;20056;-49
2022/04/20 09:22:32;;;;;;;6.50;3.37;;;10.90;41.80;;;10.97;38.86;97301.34;5042848;28;20051;-50
2022/04/20 09:25:11;;;;;;;5.30;3.00;;;11.00;41.00;;;11.06;38.77;97305.66;5042252;28;20049;-51
2022/04/20 09:27:41;;;;;;;4.40;3.30;;;11.00;41.60;;;11.03;38.14;97303.31;5042139;28;20068;-49
2022/04/20 09:30:15;;;;;;;5.00;3.57;;;11.10;40.50;;;11.11;38.80;97303.31;5042488;28;20044;-51
2022/04/20 09:32:44;;;;;;;;;;;11.10;41.00;;;11.11;37.13;97305.13;5043020;28;20049;-51
2022/04/20 09:35:20;;;;;;;4.20;3.33;;;11.10;38.50;;;11.20;38.47;97304.91;5041140;28;19923;-49
2022/04/20 09:38:05;;;;;;;3.93;3.13;;;11.20;40.20;;;11.27;38.33;97302.41;5042680;28;20055;-50
2022/04/20 09:41:06;;;;;;;4.00;3.00;;;11.20;40.20;;;11.30;38.16;97310.06;5040917;28;20049;-51
2022/04/20 09:43:35;;;;;;;4.63;3.83;;;11.30;39.80;;;11.34;37.63;97307.84;5043432;28;20063;-51
2022/04/20 09:49:14;;;;;;;6.47;3.43;;;11.40;39.40;;;11.43;37.11;97296.97;5080058;28;20051;-48
2022/04/20 09:51:43;;;;;;;3.90;3.20;;;11.40;39.50;;;11.47;37.09;97293.97;5046733;28;20363;-49
2022/04/20 09:54:31;;;;;;;5.00;3.30;;;11.50;39.80;;;11.50;36.78;97294.44;5060504;28;20057;-48
2022/04/20 09:57:13;;;;;;;6.63;3.43;;;11.50;38.40;;;11.53;37.15;97304.75;5041852;28;20049;-50
2022/04/20 10:00:13;;;;;;;4.33;3.07;;;11.50;38.60;;;11.54;35.70;97295.75;5042718;28;20059;-52
2022/04/20 10:02:52;;;;;;;3.97;2.97;;;11.60;37.00;;;11.62;37.00;97289.53;5042121;28;20045;-53
2022/04/20 10:05:23;;;;;;;4.73;3.57;;;11.60;38.70;;;11.64;36.61;97287.53;5041822;28;20049;-52
2022/04/20 10:07:54;;;;;;;4.30;2.87;;;11.70;38.90;;;11.65;36.75;97280.34;5041964;28;20061;-51
2022/04/20 10:10:23;;;;;;;3.73;3.13;;;11.60;38.70;;;11.63;36.11;97278.72;5041942;28;20046;-50
2022/04/20 10:12:54;;;;;;;4.37;3.40;;;11.70;38.30;;;11.74;36.37;97276.63;5042438;28;20366;-52
2022/04/20 10:18:24;;;;;;;4.07;2.77;;;11.80;37.90;;;11.85;35.81;97272.72;5041843;28;20055;-48
2022/04/20 10:20:57;;;;;;;5.77;3.17;;;11.90;37.00;;;11.87;35.14;97271.53;5040844;28;20056;-52
2022/04/20 10:23:29;;;;;;;4.75;3.38;;;11.90;37.00;;;11.92;36.26;97276.34;5042365;28;20057;-50
2022/04/20 10:26:06;;;;;;;3.83;2.90;;;11.90;38.00;;;11.96;35.62;97269.66;5041218;28;20060;-49
2022/04/20 10:28:57;;;;;;;5.67;3.30;;;12.00;37.80;;;11.99;35.81;97272.78;5040760;28;20052;-52
2022/04/20 10:31:44;;;;;;;5.27;3.20;;;12.00;37.30;;;12.01;35.63;97262.78;5042173;28;20049;-50
2022/04/20 10:34:19;;;;;;;3.75;2.90;;;12.00;37.50;;;12.06;36.06;97259.59;5057348;28;20053;-50
2022/04/20 10:37:07;;;;;;;4.43;3.33;;;12.10;37.60;;;12.08;35.59;97260.22;5045061;28;20051;-51
2022/04/20 10:39:52;;;;;;;6.10;3.37;;;12.10;37.00;;;12.08;34.87;97252.22;5040376;28;20053;-49
2022/04/20 10:42:22;;;;;;;4.50;2.97;;;12.10;36.70;;;12.15;34.62;97249.66;5057362;28;20052;-52
2022/04/20 10:45:05;;;;;;;4.03;2.73;;;12.20;36.30;;;12.17;34.58;97236.97;5041735;28;20063;-53
2022/04/20 10:47:34;;;;;;;4.32;2.50;;;12.30;35.90;;;12.25;35.06;97246.72;5040101;28;20037;-51
2022/04/20 10:50:16;;;;;;;4.83;2.90;;;12.30;36.80;;;12.29;34.70;97245.34;5041747;28;20060;-49
2022/04/20 10:53:05;;;;;;;4.30;3.20;;;12.30;35.50;;;12.35;34.90;97245.47;5041711;28;20045;-51
2022/04/20 10:55:37;;;;;;;4.10;2.70;;;12.40;35.80;;;12.34;34.18;97245.66;5040498;28;20060;-52
2022/04/20 10:58:17;;;;;;;3.22;2.35;;;12.40;36.30;;;12.43;34.49;97244.56;5041762;28;20229;-50
2022/04/20 11:00:45;;;;;;;3.83;3.03;;;12.50;35.80;;;12.45;34.69;97237.19;5041780;28;20239;-54
2022/04/20 11:03:13;;;;;;;3.67;2.35;;;12.50;35.90;;;12.50;33.93;97240.13;5041763;28;20053;-50
2022/04/20 11:05:54;;;;;;;4.22;2.50;;;12.50;35.50;;;12.53;32.75;97234.44;5041170;28;20270;-52
2022/04/20 11:08:26;;;;;;;3.67;2.70;;;12.60;34.20;;;12.55;33.63;97232.41;5041920;28;20048;-50
2022/04/20 11:20:04;;;;;;;3.65;2.80;;;12.70;34.50;;;12.76;34.16;97218.31;5044065;28;20050;-54
2022/04/20 11:22:45;;;;;;;3.33;2.67;;;12.80;35.30;;;12.81;33.45;97212.41;5043611;28;20075;-51
2022/04/20 11:25:13;;;;;;;4.47;2.88;;;12.90;33.60;;;12.87;33.90;97210.84;5045232;28;20055;-53
2022/04/20 11:27:41;;;;;;;3.88;2.63;;;12.90;35.20;;;12.92;34.01;97213.78;5044474;28;20057;-53
2022/04/20 11:30:14;;;;;;;3.50;2.60;;;13.00;35.20;;;12.97;33.44;97214.88;5044026;28;20045;-53
2022/04/20 11:32:42;;;;;;;6.00;3.10;;;13.00;34.60;;;13.03;33.38;97209.78;5045045;28;20045;-50
2022/04/20 11:35:15;;;;;;;3.92;2.97;;;13.10;34.70;;;13.08;33.11;97204.72;5043675;28;20052;-49
2022/04/20 11:37:56;;;;;;;3.70;3.03;;;13.20;34.40;;;13.03;31.02;97204.44;5044395;28;20051;-52
2022/04/20 11:40:25;;;;;;;4.53;3.30;;;13.20;31.80;;;13.07;32.72;97201.22;5044725;28;20055;-54
2022/04/20 11:43:10;;;;;;;3.63;2.80;;;13.20;33.80;;;13.07;32.51;97201.22;5045326;28;20348;-53
2022/04/20 11:45:59;;;;;;;4.93;2.92;;;13.20;32.70;;;13.06;32.83;97194.22;5044291;28;20056;-51